WetterOnline ( https://www.wetteronline.de )

Wetter aktuell Kappeln

Aktuelles Wetter: Schönhagen (Ostseebad) (2m)

6-stündlich | Neueste Meldungen
Ortszeit Temperatur Wetter
So, 16.05. 14:00 12.4° C wolkig
So, 16.05. 8:00 10.1° C bedeckt
So, 16.05. 2:00 9.8° C bedeckt
Sa, 15.05. 20:00 10.2° C bewölkt
Sa, 15.05. 14:00 10.5° C bedeckt
Sa, 15.05. 8:00 8.6° C bedeckt
Sa, 15.05. 2:00 8.2° C Sprühregen
Fr, 14.05. 20:00 9.4° C bedeckt
Ortszeit Temperatur Wetter
So, 16.05. 15:00 12.5° C bewölkt
So, 16.05. 14:50 12.5° C bewölkt
So, 16.05. 14:40 12.5° C bewölkt
So, 16.05. 14:30 13.6° C wolkig
So, 16.05. 14:20 13.6° C wolkig
So, 16.05. 14:10 12.5° C wolkig
So, 16.05. 14:00 12.4° C wolkig
So, 16.05. 13:30 11.5° C bedeckt
So, 16.05. 13:00 12.1° C wolkenlos
So, 16.05. 12:30 12.6° C fast wolkenlos
So, 16.05. 12:00 11.9° C wolkenlos
Ortszeit Relative Feuchte Sichtweite
So, 16.05. 14:00 88% 30 km
So, 16.05. 8:00 94% 11 km
So, 16.05. 2:00 94% 8 km
Sa, 15.05. 20:00 87% 20 km
Sa, 15.05. 14:00 78% 30 km
Sa, 15.05. 8:00 85% 35 km
Sa, 15.05. 2:00 92% 18 km
Fr, 14.05. 20:00 88% 24 km
Ortszeit Relative Feuchte Sichtweite
So, 16.05. 15:00 90% 29 km
So, 16.05. 14:50 90% -
So, 16.05. 14:40 89% -
So, 16.05. 14:30 85% 26 km
So, 16.05. 14:20 85% -
So, 16.05. 14:10 88% -
So, 16.05. 14:00 88% 30 km
So, 16.05. 13:30 92% 20 km
So, 16.05. 13:00 90% 21 km
So, 16.05. 12:30 88% 21 km
So, 16.05. 12:00 88% 20 km
Ortszeit Niederschlagsmenge Niederschlagsart
So, 16.05. 14:00 0.1 l/m2 in 6 Std. Sprühregen
So, 16.05. 8:00 0.1 l/m2 in 12 Std. -
So, 16.05. 2:00 0.1 l/m2 in 6 Std. Regen
Sa, 15.05. 20:00 0.0 l/m2 in 12 Std. -
Sa, 15.05. 14:00 0.0 l/m2 in 6 Std. -
Sa, 15.05. 8:00 0.3 l/m2 in 12 Std. Regen
Sa, 15.05. 2:00 0.1 l/m2 in 6 Std. Regen
Fr, 14.05. 20:00 0.1 l/m2 in 12 Std. Regen
Ortszeit Niederschlagsmenge Niederschlagsart
So, 16.05. 15:00 0.1 l/m2 in 1 Std. Regen
So, 16.05. 14:50 keine Meldung -
So, 16.05. 14:40 keine Meldung -
So, 16.05. 14:30 0.1 l/m2 in 1 Std. Schneeregen
So, 16.05. 14:20 keine Meldung -
So, 16.05. 14:10 keine Meldung -
So, 16.05. 14:00 0.1 l/m2 in 1 Std. Sprühregen
So, 16.05. 13:30 0.0 l/m2 in 1 Std. -
So, 16.05. 13:00 0.0 l/m2 in 1 Std. -
So, 16.05. 12:30 0.0 l/m2 in 1 Std. -
So, 16.05. 12:00 0.0 l/m2 in 1 Std. -
Ortszeit Stärke Spitze Richtung
km/h Bft. km/h Grad Sektor
So, 16.05. 14:00 15 3 22 110° O
So, 16.05. 8:00 7 2 18 170° S
So, 16.05. 2:00 17 3 22 110° O
Sa, 15.05. 20:00 18 3 29 130° SO
Sa, 15.05. 14:00 11 2 29 250° W
Sa, 15.05. 8:00 13 3 31 260° W
Sa, 15.05. 2:00 17 3 31 260° W
Fr, 14.05. 20:00 22 4 32 260° W
Ortszeit Stärke Spitze Richtung
km/h Bft. km/h Grad Sektor
So, 16.05. 15:00 14 3 18 90° O
So, 16.05. 14:50 14 3 - 90° O
So, 16.05. 14:40 14 3 - 100° O
So, 16.05. 14:30 13 3 19 110° O
So, 16.05. 14:20 13 3 - 110° O
So, 16.05. 14:10 11 2 - 110° O
So, 16.05. 14:00 15 3 22 110° O
So, 16.05. 13:30 18 3 22 120° SO
So, 16.05. 13:00 17 3 20 110° O
So, 16.05. 12:30 14 3 18 120° SO
So, 16.05. 12:00 13 3 17 120° SO
Ortszeit Untergrenze Bedeckung Gattung
total tief tief mittel hoch
So, 16.05. 14:00 2100 m 8/8 2/8 - - -
So, 16.05. 8:00 1380 m 8/8 8/8 - - -
So, 16.05. 2:00 1500 m 8/8 8/8 - - -
Sa, 15.05. 20:00 690 m 7/8 7/8 - - -
Sa, 15.05. 14:00 510 m 8/8 8/8 - - -
Sa, 15.05. 8:00 390 m 8/8 8/8 - - -
Sa, 15.05. 2:00 300 m 8/8 8/8 - - -
Fr, 14.05. 20:00 420 m 8/8 8/8 - - -
Ortszeit Bedeckungsgrad in Achtel und Wolkenuntergrenze
So, 16.05. 15:00 7(1800m)
So, 16.05. 14:50 7(1800m)
So, 16.05. 14:40 7(1800m)
So, 16.05. 14:30 5(1800m) 7(3600m) 7(4800m)
So, 16.05. 14:20 5(1800m) 7(3600m) 7(4800m)
So, 16.05. 14:10 4(1800m) 7(3600m) 7(4500m)
So, 16.05. 14:00 2(2100m) 8(3300m) 8(4500m)
So, 16.05. 13:30 1(3600m) 8(5100m) 8(6300m)
So, 16.05. 13:00 4(5100m)
So, 16.05. 12:30 1(2100m)
So, 16.05. 12:00 keine Wolken
Ortszeit Luftdruck NN (hPa) Tendenz (hPa in 3 Std.)
So, 16.05. 14:00 1000 - 0,7
So, 16.05. 8:00 1001 0,0
So, 16.05. 2:00 1002 - 0,9
Sa, 15.05. 20:00 1003 - 0,6
Sa, 15.05. 14:00 1005 - 0,7
Sa, 15.05. 8:00 1005 + 0,2
Sa, 15.05. 2:00 1005 - 0,5
Fr, 14.05. 20:00 1005 - 0,1
Ortszeit Luftdruck NN (hPa) Tendenz (hPa in 3 Std.)
So, 16.05. 15:00 1000 - 0,5
So, 16.05. 14:50 1000 keine Meldung
So, 16.05. 14:40 1000 keine Meldung
So, 16.05. 14:30 1000 - 0,5
So, 16.05. 14:20 1000 keine Meldung
So, 16.05. 14:10 1000 keine Meldung
So, 16.05. 14:00 1000 - 0,7
So, 16.05. 13:30 1000 - 0,3
So, 16.05. 13:00 1000 - 0,3
So, 16.05. 12:30 1001 - 0,1
So, 16.05. 12:00 1001 0,0
Ortszeit Schneehöhe (cm)
So, 16.05. 14:00 0
So, 16.05. 8:00 0
So, 16.05. 2:00 0
Sa, 15.05. 20:00 0
Sa, 15.05. 14:00 0
Sa, 15.05. 8:00 0
Sa, 15.05. 2:00 0
Fr, 14.05. 20:00 0
Ortszeit Schneehöhe (cm)
So, 16.05. 15:00 0
So, 16.05. 14:50 0
So, 16.05. 14:40 0
So, 16.05. 14:30 0
So, 16.05. 14:20 0
So, 16.05. 14:10 0
So, 16.05. 14:00 0
So, 16.05. 13:30 0
So, 16.05. 13:00 0
So, 16.05. 12:30 0
So, 16.05. 12:00 0
Link zu dieser Seite / Seite empfehlen

Das Wetter in ...